Time,TemperatureF,DewpointF,PressureIn,WindDirection,WindDirectionDegrees,WindSpeedMPH,WindSpeedGustMPH,Humidity,HourlyPrecipIn,Conditions,Clouds,dailyrainin,SoftwareType,DateUTC
2013-01-10 00:00:00,48.7,45.3,30.11,NE,45,5.0,7.0,88,0.00,,---,0.00,VWS V14.00,2013-01-10 06:00:00,
2013-01-10 00:05:00,48.6,45.2,30.11,NE,45,6.0,9.0,88,0.00,,---,0.00,VWS V14.00,2013-01-10 06:05:00,
2013-01-10 00:10:00,48.5,45.1,30.10,NE,45,7.0,10.0,88,0.00,,---,0.00,VWS V14.00,2013-01-10 06:10:00,
2013-01-10 00:15:00,48.5,45.4,30.10,NE,45,7.0,9.0,89,0.00,,---,0.00,VWS V14.00,2013-01-10 06:15:00,
2013-01-10 00:20:00,48.5,45.4,30.09,NE,45,7.0,10.0,89,0.00,,---,0.00,VWS V14.00,2013-01-10 06:20:00,
2013-01-10 00:25:00,48.4,45.3,30.09,NE,45,7.0,10.0,89,0.00,,---,0.00,VWS V14.00,2013-01-10 06:25:00,
2013-01-10 00:30:00,48.5,45.4,30.09,NE,45,7.0,10.0,89,0.00,,---,0.00,VWS V14.00,2013-01-10 06:30:00,
2013-01-10 00:35:00,48.5,45.4,30.10,NE,45,6.0,9.0,89,0.00,,---,0.00,VWS V14.00,2013-01-10 06:35:00,
2013-01-10 00:40:00,48.4,45.3,30.10,NE,45,5.0,6.0,89,0.00,,---,0.00,VWS V14.00,2013-01-10 06:40:00,
2013-01-10 00:45:00,48.4,45.6,30.10,NE,45,4.0,5.0,90,0.00,,---,0.00,VWS V14.00,2013-01-10 06:45:00,
2013-01-10 00:50:00,48.4,45.6,30.09,NE,45,5.0,6.0,90,0.00,,---,0.00,VWS V14.00,2013-01-10 06:50:00,
2013-01-10 00:55:00,48.4,45.6,30.09,NE,45,4.0,6.0,90,0.00,,---,0.00,VWS V14.00,2013-01-10 06:55:00,
2013-01-10 01:00:00,48.3,45.5,30.09,NE,45,5.0,6.0,90,0.00,,---,0.00,VWS V14.00,2013-01-10 07:00:00,
2013-01-10 01:05:00,48.3,45.5,30.09,NE,45,5.0,9.0,90,0.00,,---,0.00,VWS V14.00,2013-01-10 07:05:00,
2013-01-10 01:10:00,48.3,45.5,30.09,NE,45,5.0,7.0,90,0.00,,---,0.00,VWS V14.00,2013-01-10 07:10:00,
2013-01-10 01:15:00,48.3,45.5,30.09,NE,45,6.0,9.0,90,0.00,,---,0.00,VWS V14.00,2013-01-10 07:15:00,
2013-01-10 01:20:00,48.4,45.6,30.09,NE,45,5.0,7.0,90,0.00,,---,0.00,VWS V14.00,2013-01-10 07:20:00,
2013-01-10 01:25:00,48.5,45.7,30.10,NE,45,4.0,6.0,90,0.00,,---,0.00,VWS V14.00,2013-01-10 07:25:00,
2013-01-10 01:30:00,48.5,45.7,30.10,NE,45,1.0,3.0,90,0.00,,---,0.00,VWS V14.00,2013-01-10 07:30:00,
2013-01-10 01:35:00,48.5,45.7,30.10,NE,45,3.0,5.0,90,0.00,,---,0.00,VWS V14.00,2013-01-10 07:35:00,
2013-01-10 01:40:00,48.7,45.9,30.10,NE,45,4.0,5.0,90,0.00,,---,0.01,VWS V14.00,2013-01-10 07:40:00,
2013-01-10 01:45:00,48.7,45.9,30.10,NE,45,4.0,6.0,90,0.30,,---,0.03,VWS V14.00,2013-01-10 07:45:00,
2013-01-10 01:50:00,48.8,46.3,30.09,NE,45,5.0,8.0,91,0.30,,---,0.04,VWS V14.00,2013-01-10 07:50:00,
2013-01-10 01:55:00,49.0,46.5,30.08,NE,45,5.0,9.0,91,0.20,,---,0.05,VWS V14.00,2013-01-10 07:55:00,
2013-01-10 02:00:00,49.0,46.5,30.09,NE,45,4.0,7.0,91,0.13,,---,0.06,VWS V14.00,2013-01-10 08:00:00,
2013-01-10 02:05:00,49.1,46.6,30.08,NE,45,5.0,7.0,91,0.13,,---,0.07,VWS V14.00,2013-01-10 08:05:00,
2013-01-10 02:10:00,49.2,47.0,30.08,NE,45,6.0,10.0,92,0.09,,---,0.07,VWS V14.00,2013-01-10 08:10:00,
2013-01-10 02:15:00,49.3,47.1,30.07,ENE,68,7.0,11.0,92,0.05,,---,0.07,VWS V14.00,2013-01-10 08:15:00,
2013-01-10 02:20:00,49.5,47.3,30.06,ENE,68,8.0,11.0,92,0.05,,---,0.08,VWS V14.00,2013-01-10 08:20:00,
2013-01-10 02:25:00,49.7,47.5,30.06,ENE,68,10.0,16.0,92,0.05,,---,0.08,VWS V14.00,2013-01-10 08:25:00,
2013-01-10 02:30:00,49.9,47.7,30.06,ENE,68,10.0,13.0,92,0.04,,---,0.08,VWS V14.00,2013-01-10 08:30:00,
2013-01-10 02:35:00,49.9,47.7,30.06,ENE,68,9.0,13.0,92,0.00,,---,0.08,VWS V14.00,2013-01-10 08:35:00,
2013-01-10 02:40:00,50.1,47.9,30.06,ENE,68,11.0,15.0,92,0.00,,---,0.08,VWS V14.00,2013-01-10 08:40:00,
2013-01-10 02:45:00,50.2,48.0,30.06,ENE,68,9.0,12.0,92,0.00,,---,0.08,VWS V14.00,2013-01-10 08:45:00,
2013-01-10 02:50:00,50.0,47.8,30.06,ENE,68,6.0,9.0,92,0.00,,---,0.08,VWS V14.00,2013-01-10 08:50:00,
2013-01-10 02:55:00,49.8,47.6,30.05,ENE,68,5.0,8.0,92,0.00,,---,0.08,VWS V14.00,2013-01-10 08:55:00,
2013-01-10 03:00:00,49.4,47.2,30.05,ENE,68,5.0,7.0,92,0.00,,---,0.08,VWS V14.00,2013-01-10 09:00:00,
2013-01-10 03:05:00,49.2,47.3,30.05,ENE,68,5.0,9.0,93,0.00,,---,0.08,VWS V14.00,2013-01-10 09:05:00,
2013-01-10 03:10:00,49.6,47.7,30.05,ENE,68,9.0,14.0,93,0.00,,---,0.08,VWS V14.00,2013-01-10 09:10:00,
2013-01-10 03:15:00,50.3,48.4,30.05,East,90,10.0,14.0,93,0.00,,---,0.09,VWS V14.00,2013-01-10 09:15:00,
2013-01-10 03:20:00,50.7,48.8,30.03,East,90,11.0,16.0,93,0.21,,---,0.10,VWS V14.00,2013-01-10 09:20:00,
2013-01-10 03:25:00,50.9,49.0,30.03,East,90,11.0,19.0,93,0.17,,---,0.11,VWS V14.00,2013-01-10 09:25:00,
2013-01-10 03:30:00,50.9,49.0,30.03,East,90,11.0,16.0,93,0.11,,---,0.12,VWS V14.00,2013-01-10 09:30:00,
2013-01-10 03:35:00,51.0,49.0,30.03,East,90,12.0,17.0,93,0.39,,---,0.13,VWS V14.00,2013-01-10 09:35:00,
2013-01-10 03:40:00,51.0,49.0,30.03,East,90,10.0,13.0,93,0.13,,---,0.14,VWS V14.00,2013-01-10 09:40:00,
2013-01-10 03:45:00,51.0,49.0,30.03,East,90,12.0,18.0,93,0.08,,---,0.14,VWS V14.00,2013-01-10 09:45:00,
2013-01-10 03:50:00,51.0,49.0,30.01,East,90,10.0,16.0,93,0.05,,---,0.14,VWS V14.00,2013-01-10 09:50:00,
2013-01-10 03:55:00,50.9,49.0,30.01,East,90,11.0,16.0,93,0.04,,---,0.14,VWS V14.00,2013-01-10 09:55:00,
2013-01-10 04:00:00,50.9,49.0,30.01,East,90,11.0,16.0,93,0.00,,---,0.14,VWS V14.00,2013-01-10 10:00:00,
2013-01-10 04:05:00,50.9,49.0,30.00,East,90,11.0,16.0,93,0.00,,---,0.14,VWS V14.00,2013-01-10 10:05:00,
2013-01-10 04:10:00,50.9,49.0,30.00,East,90,10.0,14.0,93,0.00,,---,0.14,VWS V14.00,2013-01-10 10:10:00,
2013-01-10 04:15:00,50.9,49.0,29.99,East,90,12.0,17.0,93,0.00,,---,0.15,VWS V14.00,2013-01-10 10:15:00,
2013-01-10 04:20:00,50.9,49.0,29.99,East,90,12.0,17.0,93,0.00,,---,0.15,VWS V14.00,2013-01-10 10:20:00,
2013-01-10 04:25:00,50.9,49.0,29.98,East,90,12.0,18.0,93,0.00,,---,0.15,VWS V14.00,2013-01-10 10:25:00,
2013-01-10 04:30:00,50.9,49.0,29.98,East,90,11.0,17.0,93,0.00,,---,0.15,VWS V14.00,2013-01-10 10:30:00,
2013-01-10 04:35:00,50.8,48.8,29.98,East,90,11.0,19.0,93,0.00,,---,0.15,VWS V14.00,2013-01-10 10:35:00,
2013-01-10 04:40:00,50.8,48.8,29.97,East,90,14.0,19.0,93,0.00,,---,0.15,VWS V14.00,2013-01-10 10:40:00,
2013-01-10 04:45:00,50.8,48.8,29.97,East,90,12.0,17.0,93,0.00,,---,0.15,VWS V14.00,2013-01-10 10:45:00,
2013-01-10 04:50:00,50.8,48.8,29.97,East,90,14.0,23.0,93,0.00,,---,0.15,VWS V14.00,2013-01-10 10:50:00,
2013-01-10 04:55:00,50.8,48.8,29.97,East,90,13.0,23.0,93,0.00,,---,0.15,VWS V14.00,2013-01-10 10:55:00,
2013-01-10 05:00:00,50.8,48.8,29.96,East,90,13.0,21.0,93,0.00,,---,0.15,VWS V14.00,2013-01-10 11:00:00,
2013-01-10 05:05:00,50.8,48.8,29.96,East,90,12.0,17.0,93,0.00,,---,0.15,VWS V14.00,2013-01-10 11:05:00,
2013-01-10 05:10:00,50.8,48.8,29.96,East,90,12.0,19.0,93,0.00,,---,0.15,VWS V14.00,2013-01-10 11:10:00,
2013-01-10 05:15:00,50.8,48.8,29.95,East,90,13.0,18.0,93,0.00,,---,0.15,VWS V14.00,2013-01-10 11:15:00,
2013-01-10 05:20:00,50.8,48.8,29.96,East,90,13.0,16.0,93,0.00,,---,0.15,VWS V14.00,2013-01-10 11:20:00,
2013-01-10 05:25:00,50.8,48.8,29.96,East,90,13.0,19.0,93,0.00,,---,0.15,VWS V14.00,2013-01-10 11:25:00,
2013-01-10 05:30:00,50.7,48.8,29.95,East,90,12.0,17.0,93,0.00,,---,0.15,VWS V14.00,2013-01-10 11:30:00,
2013-01-10 05:35:00,50.7,48.8,29.95,East,90,11.0,19.0,93,0.00,,---,0.15,VWS V14.00,2013-01-10 11:35:00,
2013-01-10 05:40:00,50.7,48.8,29.95,East,90,11.0,16.0,93,0.00,,---,0.16,VWS V14.00,2013-01-10 11:40:00,
2013-01-10 05:45:00,50.6,48.7,29.94,East,90,11.0,15.0,93,0.00,,---,0.16,VWS V14.00,2013-01-10 11:45:00,
2013-01-10 05:50:00,50.6,48.7,29.94,East,90,12.0,15.0,93,0.00,,---,0.16,VWS V14.00,2013-01-10 11:50:00,
2013-01-10 05:55:00,50.6,48.7,29.94,East,90,10.0,17.0,93,0.00,,---,0.16,VWS V14.00,2013-01-10 11:55:00,
2013-01-10 06:00:00,50.6,48.7,29.94,East,90,13.0,18.0,93,0.00,,---,0.16,VWS V14.00,2013-01-10 12:00:00,
2013-01-10 06:05:00,50.6,48.7,29.94,East,90,12.0,15.0,93,0.00,,---,0.16,VWS V14.00,2013-01-10 12:05:00,
2013-01-10 06:10:00,50.6,48.7,29.94,East,90,9.0,14.0,93,0.00,,---,0.17,VWS V14.00,2013-01-10 12:10:00,
2013-01-10 06:15:00,50.6,48.7,29.93,East,90,9.0,13.0,93,0.00,,---,0.17,VWS V14.00,2013-01-10 12:15:00,
2013-01-10 06:20:00,50.6,48.7,29.94,East,90,9.0,14.0,93,0.00,,---,0.17,VWS V14.00,2013-01-10 12:20:00,
2013-01-10 06:25:00,50.6,48.7,29.94,East,90,10.0,15.0,93,0.00,,---,0.17,VWS V14.00,2013-01-10 12:25:00,
2013-01-10 06:30:00,50.6,48.7,29.94,ESE,112,10.0,14.0,93,0.00,,---,0.17,VWS V14.00,2013-01-10 12:30:00,
2013-01-10 06:35:00,50.6,48.7,29.94,ESE,112,11.0,16.0,93,0.00,,---,0.17,VWS V14.00,2013-01-10 12:35:00,
2013-01-10 06:40:00,50.6,48.7,29.94,ESE,112,10.0,14.0,93,0.00,,---,0.17,VWS V14.00,2013-01-10 12:40:00,
2013-01-10 06:45:00,50.6,48.7,29.93,East,90,10.0,13.0,93,0.00,,---,0.17,VWS V14.00,2013-01-10 12:45:00,
2013-01-10 06:50:00,50.6,48.7,29.94,East,90,11.0,15.0,93,0.00,,---,0.17,VWS V14.00,2013-01-10 12:50:00,
2013-01-10 06:55:00,50.6,48.7,29.94,ESE,112,11.0,19.0,93,0.00,,---,0.17,VWS V14.00,2013-01-10 12:55:00,
2013-01-10 07:00:00,50.6,48.7,29.94,ESE,112,12.0,16.0,93,0.00,,---,0.17,VWS V14.00,2013-01-10 13:00:00,
2013-01-10 07:05:00,50.5,48.6,29.94,ESE,112,11.0,14.0,93,0.00,,---,0.17,VWS V14.00,2013-01-10 13:05:00,
2013-01-10 07:10:00,50.5,48.6,29.94,East,90,9.0,14.0,93,0.00,,---,0.17,VWS V14.00,2013-01-10 13:10:00,
2013-01-10 07:15:00,50.5,48.6,29.94,East,90,10.0,16.0,93,0.00,,---,0.17,VWS V14.00,2013-01-10 13:15:00,
2013-01-10 07:20:00,50.5,48.6,29.93,East,90,10.0,14.0,93,0.00,,---,0.17,VWS V14.00,2013-01-10 13:20:00,
2013-01-10 07:25:00,50.5,48.6,29.94,East,90,8.0,14.0,93,0.00,,---,0.17,VWS V14.00,2013-01-10 13:25:00,
2013-01-10 07:30:00,50.5,48.6,29.94,East,90,9.0,14.0,93,0.00,,---,0.17,VWS V14.00,2013-01-10 13:30:00,
2013-01-10 07:35:00,50.5,48.6,29.94,ESE,112,8.0,15.0,93,0.00,,---,0.17,VWS V14.00,2013-01-10 13:35:00,
2013-01-10 07:40:00,50.4,48.5,29.94,ESE,112,9.0,13.0,93,0.00,,---,0.17,VWS V14.00,2013-01-10 13:40:00,
2013-01-10 07:45:00,50.4,48.5,29.94,East,90,9.0,13.0,93,0.00,,---,0.17,VWS V14.00,2013-01-10 13:45:00,
2013-01-10 07:50:00,50.4,48.7,29.94,East,90,8.0,11.0,94,0.00,,---,0.17,VWS V14.00,2013-01-10 13:50:00,
2013-01-10 07:55:00,50.4,48.7,29.94,East,90,8.0,12.0,94,0.00,,---,0.17,VWS V14.00,2013-01-10 13:55:00,
2013-01-10 08:00:00,50.4,48.7,29.94,East,90,7.0,12.0,94,0.00,,---,0.17,VWS V14.00,2013-01-10 14:00:00,
2013-01-10 08:05:00,50.4,48.7,29.94,East,90,5.0,9.0,94,0.00,,---,0.17,VWS V14.00,2013-01-10 14:05:00,
2013-01-10 08:10:00,50.4,48.7,29.94,ESE,112,5.0,10.0,94,0.00,,---,0.17,VWS V14.00,2013-01-10 14:10:00,
2013-01-10 08:15:00,50.4,48.7,29.94,ESE,112,4.0,10.0,94,0.00,,---,0.17,VWS V14.00,2013-01-10 14:15:00,
2013-01-10 08:20:00,50.4,48.7,29.94,ESE,112,5.0,9.0,94,0.00,,---,0.17,VWS V14.00,2013-01-10 14:20:00,
2013-01-10 08:25:00,50.4,48.7,29.94,East,90,5.0,8.0,94,0.00,,---,0.17,VWS V14.00,2013-01-10 14:25:00,
2013-01-10 08:30:00,50.4,48.7,29.94,East,90,3.0,6.0,94,0.00,,---,0.17,VWS V14.00,2013-01-10 14:30:00,
2013-01-10 08:35:00,50.4,48.7,29.94,East,90,5.0,9.0,94,0.00,,---,0.17,VWS V14.00,2013-01-10 14:35:00,
2013-01-10 08:40:00,50.4,48.7,29.94,ESE,112,5.0,9.0,94,0.00,,---,0.17,VWS V14.00,2013-01-10 14:40:00,
2013-01-10 08:45:00,50.5,48.8,29.94,ESE,112,5.0,9.0,94,0.00,,---,0.17,VWS V14.00,2013-01-10 14:45:00,
2013-01-10 08:50:00,50.5,48.8,29.94,ESE,112,6.0,10.0,94,0.00,,---,0.17,VWS V14.00,2013-01-10 14:50:00,
2013-01-10 08:55:00,50.5,48.8,29.93,ESE,112,7.0,13.0,94,0.00,,---,0.17,VWS V14.00,2013-01-10 14:55:00,
2013-01-10 09:00:00,50.5,48.8,29.93,ESE,112,10.0,13.0,94,0.00,,---,0.17,VWS V14.00,2013-01-10 15:00:00,
2013-01-10 09:05:00,50.5,48.8,29.93,ESE,112,11.0,15.0,94,0.00,,---,0.17,VWS V14.00,2013-01-10 15:05:00,
2013-01-10 09:10:00,50.5,48.8,29.92,East,90,10.0,14.0,94,0.00,,---,0.17,VWS V14.00,2013-01-10 15:10:00,
2013-01-10 09:15:00,50.6,48.9,29.92,East,90,11.0,18.0,94,0.00,,---,0.17,VWS V14.00,2013-01-10 15:15:00,
2013-01-10 09:20:00,50.6,48.9,29.92,East,90,11.0,17.0,94,0.00,,---,0.17,VWS V14.00,2013-01-10 15:20:00,
2013-01-10 09:25:00,50.7,49.0,29.91,East,90,11.0,17.0,94,0.00,,---,0.17,VWS V14.00,2013-01-10 15:25:00,
2013-01-10 09:30:00,50.8,49.1,29.90,East,90,11.0,16.0,94,0.00,,---,0.17,VWS V14.00,2013-01-10 15:30:00,
2013-01-10 09:35:00,50.8,49.1,29.90,ESE,112,12.0,16.0,94,0.00,,---,0.17,VWS V14.00,2013-01-10 15:35:00,
2013-01-10 09:40:00,50.9,49.2,29.90,ESE,112,11.0,15.0,94,0.00,,---,0.17,VWS V14.00,2013-01-10 15:40:00,
2013-01-10 09:45:00,51.0,49.3,29.91,ESE,112,13.0,20.0,94,0.00,,---,0.17,VWS V14.00,2013-01-10 15:45:00,
2013-01-10 09:50:00,51.1,49.4,29.90,ESE,112,12.0,19.0,94,0.00,,---,0.17,VWS V14.00,2013-01-10 15:50:00,
2013-01-10 09:55:00,51.1,49.4,29.90,ESE,112,13.0,21.0,94,0.00,,---,0.17,VWS V14.00,2013-01-10 15:55:00,
2013-01-10 10:00:00,51.1,49.4,29.90,ESE,112,12.0,19.0,94,0.00,,---,0.17,VWS V14.00,2013-01-10 16:00:00,
2013-01-10 10:05:00,51.2,49.5,29.90,ESE,112,12.0,18.0,94,0.00,,---,0.17,VWS V14.00,2013-01-10 16:05:00,
2013-01-10 10:10:00,51.3,49.6,29.90,ESE,112,12.0,17.0,94,0.00,,---,0.17,VWS V14.00,2013-01-10 16:10:00,
2013-01-10 10:15:00,51.4,49.7,29.90,ESE,112,12.0,17.0,94,0.00,,---,0.17,VWS V14.00,2013-01-10 16:15:00,
2013-01-10 10:20:00,51.5,49.8,29.90,ESE,112,11.0,16.0,94,0.00,,---,0.17,VWS V14.00,2013-01-10 16:20:00,
2013-01-10 10:25:00,51.7,50.0,29.90,ESE,112,11.0,16.0,94,0.00,,---,0.17,VWS V14.00,2013-01-10 16:25:00,
2013-01-10 10:30:00,51.8,50.1,29.89,ESE,112,13.0,17.0,94,0.00,,---,0.17,VWS V14.00,2013-01-10 16:30:00,
2013-01-10 10:35:00,51.8,50.1,29.90,ESE,112,12.0,16.0,94,0.00,,---,0.17,VWS V14.00,2013-01-10 16:35:00,
2013-01-10 10:40:00,51.8,50.1,29.90,ESE,112,10.0,15.0,94,0.00,,---,0.17,VWS V14.00,2013-01-10 16:40:00,
2013-01-10 10:45:00,51.9,50.2,29.90,ESE,112,8.0,13.0,94,0.00,,---,0.17,VWS V14.00,2013-01-10 16:45:00,
2013-01-10 10:50:00,52.1,50.4,29.89,ESE,112,10.0,15.0,94,0.00,,---,0.17,VWS V14.00,2013-01-10 16:50:00,
2013-01-10 10:55:00,52.2,50.5,29.89,ESE,112,10.0,16.0,94,0.00,,---,0.17,VWS V14.00,2013-01-10 16:55:00,
2013-01-10 11:00:00,52.4,50.7,29.89,ESE,112,11.0,16.0,94,0.00,,---,0.17,VWS V14.00,2013-01-10 17:00:00,
2013-01-10 11:05:00,52.5,50.8,29.89,ESE,112,9.0,15.0,94,0.00,,---,0.17,VWS V14.00,2013-01-10 17:05:00,
2013-01-10 11:10:00,52.8,51.1,29.88,ESE,112,10.0,15.0,94,0.00,,---,0.17,VWS V14.00,2013-01-10 17:10:00,
2013-01-10 11:15:00,53.0,51.3,29.88,ESE,112,11.0,15.0,94,0.00,,---,0.17,VWS V14.00,2013-01-10 17:15:00,
2013-01-10 11:20:00,53.2,51.5,29.88,SE,135,10.0,14.0,94,0.00,,---,0.17,VWS V14.00,2013-01-10 17:20:00,
2013-01-10 11:25:00,53.3,51.6,29.87,SE,135,9.0,13.0,94,0.00,,---,0.17,VWS V14.00,2013-01-10 17:25:00,
2013-01-10 11:30:00,53.5,51.8,29.87,SE,135,8.0,13.0,94,0.00,,---,0.17,VWS V14.00,2013-01-10 17:30:00,
2013-01-10 11:35:00,53.6,51.9,29.88,SE,135,9.0,17.0,94,0.00,,---,0.17,VWS V14.00,2013-01-10 17:35:00,
2013-01-10 11:40:00,53.6,51.9,29.87,SE,135,6.0,10.0,94,0.00,,---,0.17,VWS V14.00,2013-01-10 17:40:00,
2013-01-10 11:45:00,53.5,51.8,29.87,SE,135,7.0,11.0,94,0.00,,---,0.17,VWS V14.00,2013-01-10 17:45:00,
2013-01-10 11:50:00,53.4,51.7,29.87,SE,135,8.0,15.0,94,0.00,,---,0.17,VWS V14.00,2013-01-10 17:50:00,
2013-01-10 11:55:00,53.2,51.5,29.87,SE,135,8.0,11.0,94,0.00,,---,0.17,VWS V14.00,2013-01-10 17:55:00,
2013-01-10 12:00:00,53.1,51.4,29.87,SE,135,8.0,12.0,94,0.00,,---,0.17,VWS V14.00,2013-01-10 18:00:00,
2013-01-10 12:05:00,52.9,51.2,29.86,SE,135,10.0,13.0,94,0.00,,---,0.17,VWS V14.00,2013-01-10 18:05:00,
2013-01-10 12:10:00,52.8,51.1,29.86,SE,135,7.0,11.0,94,0.00,,---,0.17,VWS V14.00,2013-01-10 18:10:00,
2013-01-10 12:15:00,52.9,51.2,29.86,SE,135,9.0,12.0,94,0.00,,---,0.17,VWS V14.00,2013-01-10 18:15:00,
2013-01-10 12:20:00,52.9,51.2,29.85,SE,135,9.0,12.0,94,0.00,,---,0.17,VWS V14.00,2013-01-10 18:20:00,
2013-01-10 12:25:00,53.0,51.3,29.84,SE,135,9.0,13.0,94,0.00,,---,0.17,VWS V14.00,2013-01-10 18:25:00,
2013-01-10 12:30:00,53.0,51.3,29.84,SE,135,7.0,12.0,94,0.00,,---,0.17,VWS V14.00,2013-01-10 18:30:00,
2013-01-10 12:35:00,53.2,51.5,29.83,SE,135,5.0,8.0,94,0.00,,---,0.17,VWS V14.00,2013-01-10 18:35:00,
2013-01-10 12:40:00,53.2,51.5,29.83,SE,135,5.0,9.0,94,0.00,,---,0.17,VWS V14.00,2013-01-10 18:40:00,
2013-01-10 12:45:00,53.2,51.5,29.83,ESE,112,7.0,11.0,94,0.00,,---,0.17,VWS V14.00,2013-01-10 18:45:00,
2013-01-10 12:50:00,53.2,51.5,29.83,ESE,112,6.0,9.0,94,0.00,,---,0.17,VWS V14.00,2013-01-10 18:50:00,
2013-01-10 12:55:00,53.1,51.4,29.83,ESE,112,7.0,11.0,94,0.00,,---,0.17,VWS V14.00,2013-01-10 18:55:00,
2013-01-10 13:00:00,53.1,51.4,29.82,SE,135,7.0,11.0,94,0.00,,---,0.17,VWS V14.00,2013-01-10 19:00:00,
2013-01-10 13:05:00,53.1,51.4,29.83,SE,135,5.0,8.0,94,0.00,,---,0.17,VWS V14.00,2013-01-10 19:05:00,
2013-01-10 13:10:00,53.1,51.4,29.82,SE,135,3.0,6.0,94,0.00,,---,0.17,VWS V14.00,2013-01-10 19:10:00,
2013-01-10 13:15:00,53.3,51.6,29.81,SE,135,4.0,7.0,94,0.00,,---,0.17,VWS V14.00,2013-01-10 19:15:00,
2013-01-10 13:20:00,53.6,51.9,29.81,SE,135,5.0,10.0,94,0.00,,---,0.17,VWS V14.00,2013-01-10 19:20:00,
2013-01-10 13:25:00,53.8,52.1,29.81,SSE,158,7.0,10.0,94,0.00,,---,0.17,VWS V14.00,2013-01-10 19:25:00,
2013-01-10 13:30:00,53.9,52.2,29.81,SSE,158,7.0,11.0,94,0.00,,---,0.17,VWS V14.00,2013-01-10 19:30:00,
2013-01-10 13:35:00,53.9,52.2,29.80,SSE,158,6.0,11.0,94,0.00,,---,0.17,VWS V14.00,2013-01-10 19:35:00,
2013-01-10 13:40:00,53.9,52.2,29.80,SSE,158,7.0,10.0,94,0.00,,---,0.17,VWS V14.00,2013-01-10 19:40:00,
2013-01-10 13:45:00,54.1,52.4,29.80,SE,135,6.0,11.0,94,0.00,,---,0.17,VWS V14.00,2013-01-10 19:45:00,
2013-01-10 13:50:00,54.1,52.4,29.78,SE,135,5.0,8.0,94,0.00,,---,0.17,VWS V14.00,2013-01-10 19:50:00,
2013-01-10 13:55:00,54.1,52.4,29.78,SE,135,4.0,8.0,94,0.00,,---,0.17,VWS V14.00,2013-01-10 19:55:00,
2013-01-10 14:00:00,54.3,52.6,29.78,SE,135,5.0,8.0,94,0.00,,---,0.17,VWS V14.00,2013-01-10 20:00:00,
2013-01-10 14:05:00,54.4,52.4,29.78,SE,135,6.0,9.0,93,0.00,,---,0.17,VWS V14.00,2013-01-10 20:05:00,
2013-01-10 14:10:00,54.5,52.8,29.78,ESE,112,7.0,10.0,94,0.00,,---,0.17,VWS V14.00,2013-01-10 20:10:00,
2013-01-10 14:15:00,54.7,53.0,29.78,SE,135,7.0,11.0,94,0.00,,---,0.17,VWS V14.00,2013-01-10 20:15:00,
2013-01-10 14:20:00,54.9,52.9,29.78,SE,135,8.0,12.0,93,0.00,,---,0.17,VWS V14.00,2013-01-10 20:20:00,
2013-01-10 14:25:00,55.0,53.0,29.78,SE,135,7.0,11.0,93,0.00,,---,0.17,VWS V14.00,2013-01-10 20:25:00,
2013-01-10 14:30:00,55.1,53.1,29.78,SSE,158,6.0,10.0,93,0.00,,---,0.17,VWS V14.00,2013-01-10 20:30:00,
2013-01-10 14:35:00,55.2,53.2,29.78,SE,135,7.0,12.0,93,0.00,,---,0.17,VWS V14.00,2013-01-10 20:35:00,
2013-01-10 14:40:00,55.3,53.3,29.78,SE,135,5.0,10.0,93,0.00,,---,0.17,VWS V14.00,2013-01-10 20:40:00,
2013-01-10 14:45:00,55.4,53.4,29.78,SE,135,5.0,10.0,93,0.00,,---,0.17,VWS V14.00,2013-01-10 20:45:00,
2013-01-10 14:50:00,55.4,53.4,29.78,SE,135,7.0,10.0,93,0.00,,---,0.17,VWS V14.00,2013-01-10 20:50:00,
2013-01-10 14:55:00,55.4,53.1,29.79,SE,135,5.0,9.0,92,0.00,,---,0.17,VWS V14.00,2013-01-10 20:55:00,
2013-01-10 15:00:00,55.5,53.5,29.79,SSE,158,5.0,10.0,93,0.00,,---,0.17,VWS V14.00,2013-01-10 21:00:00,
2013-01-10 15:05:00,55.6,53.3,29.78,SSE,158,4.0,9.0,92,0.00,,---,0.17,VWS V14.00,2013-01-10 21:05:00,
2013-01-10 15:10:00,55.7,53.4,29.78,SE,135,3.0,9.0,92,0.00,,---,0.17,VWS V14.00,2013-01-10 21:10:00,
2013-01-10 15:15:00,55.7,53.4,29.79,SSE,158,2.0,5.0,92,0.00,,---,0.17,VWS V14.00,2013-01-10 21:15:00,
2013-01-10 15:20:00,55.8,53.5,29.78,SSE,158,2.0,6.0,92,0.00,,---,0.17,VWS V14.00,2013-01-10 21:20:00,
2013-01-10 15:25:00,55.9,53.6,29.79,SSE,158,4.0,10.0,92,0.00,,---,0.18,VWS V14.00,2013-01-10 21:25:00,
2013-01-10 15:30:00,56.0,53.7,29.79,SSE,158,4.0,9.0,92,0.00,,---,0.18,VWS V14.00,2013-01-10 21:30:00,
2013-01-10 15:35:00,56.0,53.4,29.79,SSE,158,6.0,11.0,91,0.00,,---,0.18,VWS V14.00,2013-01-10 21:35:00,
2013-01-10 15:40:00,56.2,53.3,29.79,SE,135,5.0,10.0,90,0.00,,---,0.18,VWS V14.00,2013-01-10 21:40:00,
2013-01-10 15:45:00,56.3,53.1,29.79,SE,135,4.0,10.0,89,0.00,,---,0.18,VWS V14.00,2013-01-10 21:45:00,
2013-01-10 15:50:00,56.5,53.0,29.79,SSE,158,4.0,8.0,88,0.00,,---,0.18,VWS V14.00,2013-01-10 21:50:00,
2013-01-10 15:55:00,56.7,52.9,29.80,SSE,158,7.0,14.0,87,0.00,,---,0.18,VWS V14.00,2013-01-10 21:55:00,
2013-01-10 16:00:00,56.9,52.8,29.80,SSE,158,9.0,16.0,86,0.00,,---,0.18,VWS V14.00,2013-01-10 22:00:00,
2013-01-10 16:05:00,57.0,52.9,29.80,SSE,158,8.0,12.0,86,0.00,,---,0.18,VWS V14.00,2013-01-10 22:05:00,
2013-01-10 16:10:00,57.1,52.6,29.80,SSE,158,8.0,13.0,85,0.00,,---,0.18,VWS V14.00,2013-01-10 22:10:00,
2013-01-10 16:15:00,56.9,52.4,29.80,SSE,158,7.0,11.0,85,0.00,,---,0.18,VWS V14.00,2013-01-10 22:15:00,
2013-01-10 16:20:00,57.0,52.9,29.80,SE,135,4.0,9.0,86,0.00,,---,0.18,VWS V14.00,2013-01-10 22:20:00,
2013-01-10 16:25:00,57.1,53.0,29.80,SSE,158,6.0,11.0,86,0.00,,---,0.18,VWS V14.00,2013-01-10 22:25:00,
2013-01-10 16:30:00,56.9,52.4,29.80,SSE,158,10.0,17.0,85,0.00,,---,0.18,VWS V14.00,2013-01-10 22:30:00,
2013-01-10 16:35:00,56.1,49.7,29.80,South,180,10.0,15.0,79,0.00,,---,0.18,VWS V14.00,2013-01-10 22:35:00,
2013-01-10 16:40:00,55.6,48.9,29.80,South,180,8.0,14.0,78,0.00,,---,0.18,VWS V14.00,2013-01-10 22:40:00,
2013-01-10 16:45:00,55.3,48.2,29.80,South,180,9.0,13.0,77,0.00,,---,0.18,VWS V14.00,2013-01-10 22:45:00,
2013-01-10 16:50:00,55.0,47.9,29.80,South,180,10.0,14.0,77,0.00,,---,0.18,VWS V14.00,2013-01-10 22:50:00,
2013-01-10 16:55:00,54.8,48.1,29.80,South,180,10.0,14.0,78,0.00,,---,0.18,VWS V14.00,2013-01-10 22:55:00,
2013-01-10 17:00:00,54.6,48.2,29.80,South,180,9.0,14.0,79,0.00,,---,0.18,VWS V14.00,2013-01-10 23:00:00,
2013-01-10 17:05:00,54.5,48.1,29.80,South,180,9.0,15.0,79,0.00,,---,0.18,VWS V14.00,2013-01-10 23:05:00,
2013-01-10 17:10:00,54.4,48.4,29.80,South,180,7.0,11.0,80,0.00,,---,0.18,VWS V14.00,2013-01-10 23:10:00,
2013-01-10 17:15:00,54.2,48.5,29.80,South,180,8.0,13.0,81,0.00,,---,0.18,VWS V14.00,2013-01-10 23:15:00,
2013-01-10 17:20:00,53.9,48.5,29.80,South,180,8.0,13.0,82,0.00,,---,0.18,VWS V14.00,2013-01-10 23:20:00,
2013-01-10 17:25:00,53.7,48.7,29.80,South,180,9.0,16.0,83,0.00,,---,0.18,VWS V14.00,2013-01-10 23:25:00,
2013-01-10 17:30:00,53.5,48.8,29.80,SSW,202,7.0,12.0,84,0.00,,---,0.18,VWS V14.00,2013-01-10 23:30:00,
2013-01-10 17:35:00,53.2,48.5,29.80,SSW,202,6.0,10.0,84,0.00,,---,0.18,VWS V14.00,2013-01-10 23:35:00,
2013-01-10 17:40:00,52.9,48.2,29.80,SSW,202,5.0,10.0,84,0.00,,---,0.18,VWS V14.00,2013-01-10 23:40:00,
2013-01-10 17:45:00,52.7,48.3,29.80,SSW,202,5.0,10.0,85,0.00,,---,0.18,VWS V14.00,2013-01-10 23:45:00,
2013-01-10 17:50:00,52.4,48.0,29.80,SSW,202,5.0,7.0,85,0.00,,---,0.18,VWS V14.00,2013-01-10 23:50:00,
2013-01-10 17:55:00,52.2,47.8,29.81,SSW,202,5.0,8.0,85,0.00,,---,0.18,VWS V14.00,2013-01-10 23:55:00,
2013-01-10 18:00:00,51.9,47.5,29.81,SSW,202,4.0,7.0,85,0.00,,---,0.18,VWS V14.00,2013-01-11 00:00:00,
2013-01-10 18:05:00,51.6,47.2,29.81,SSW,202,4.0,7.0,85,0.00,,---,0.18,VWS V14.00,2013-01-11 00:05:00,
2013-01-10 18:10:00,51.4,47.4,29.81,SSW,202,5.0,8.0,86,0.00,,---,0.18,VWS V14.00,2013-01-11 00:10:00,
2013-01-10 18:15:00,51.1,47.1,29.81,SSW,202,6.0,9.0,86,0.00,,---,0.18,VWS V14.00,2013-01-11 00:15:00,
2013-01-10 18:20:00,50.9,46.9,29.81,SSW,202,6.0,10.0,86,0.00,,---,0.18,VWS V14.00,2013-01-11 00:20:00,
2013-01-10 18:25:00,50.8,47.1,29.81,SSW,202,6.0,10.0,87,0.00,,---,0.18,VWS V14.00,2013-01-11 00:25:00,
2013-01-10 18:30:00,50.7,47.0,29.81,SSW,202,5.0,9.0,87,0.00,,---,0.18,VWS V14.00,2013-01-11 00:30:00,
2013-01-10 18:35:00,50.6,46.9,29.81,SSW,202,6.0,10.0,87,0.00,,---,0.18,VWS V14.00,2013-01-11 00:35:00,
2013-01-10 18:40:00,50.5,46.8,29.81,SSW,202,5.0,8.0,87,0.00,,---,0.18,VWS V14.00,2013-01-11 00:40:00,
2013-01-10 18:45:00,50.4,46.7,29.81,SSW,202,4.0,7.0,87,0.00,,---,0.18,VWS V14.00,2013-01-11 00:45:00,
2013-01-10 18:50:00,50.3,46.9,29.80,SSW,202,4.0,7.0,88,0.00,,---,0.18,VWS V14.00,2013-01-11 00:50:00,
2013-01-10 18:55:00,50.2,46.8,29.80,SSW,202,4.0,6.0,88,0.00,,---,0.18,VWS V14.00,2013-01-11 00:55:00,
2013-01-10 19:00:00,50.1,46.7,29.80,SSW,202,4.0,5.0,88,0.00,,---,0.18,VWS V14.00,2013-01-11 01:00:00,
2013-01-10 19:05:00,49.9,46.5,29.81,SSW,202,4.0,6.0,88,0.00,,---,0.18,VWS V14.00,2013-01-11 01:05:00,
2013-01-10 19:10:00,49.7,46.3,29.81,SSW,202,4.0,6.0,88,0.00,,---,0.18,VWS V14.00,2013-01-11 01:10:00,
2013-01-10 19:15:00,49.5,46.1,29.81,SSW,202,4.0,6.0,88,0.00,,---,0.18,VWS V14.00,2013-01-11 01:15:00,
2013-01-10 19:20:00,49.3,45.9,29.81,SSW,202,4.0,5.0,88,0.00,,---,0.18,VWS V14.00,2013-01-11 01:20:00,
2013-01-10 19:25:00,49.2,45.8,29.81,SSW,202,4.0,6.0,88,0.00,,---,0.18,VWS V14.00,2013-01-11 01:25:00,
2013-01-10 19:30:00,49.1,46.0,29.81,SSW,202,5.0,7.0,89,0.00,,---,0.18,VWS V14.00,2013-01-11 01:30:00,
2013-01-10 19:35:00,49.2,46.1,29.81,South,180,7.0,11.0,89,0.00,,---,0.18,VWS V14.00,2013-01-11 01:35:00,
2013-01-10 19:40:00,49.4,46.6,29.81,South,180,8.0,13.0,90,0.00,,---,0.18,VWS V14.00,2013-01-11 01:40:00,
2013-01-10 19:45:00,49.6,46.8,29.81,South,180,9.0,14.0,90,0.00,,---,0.18,VWS V14.00,2013-01-11 01:45:00,
2013-01-10 19:50:00,49.8,47.0,29.81,South,180,9.0,15.0,90,0.00,,---,0.18,VWS V14.00,2013-01-11 01:50:00,
2013-01-10 19:55:00,50.0,47.2,29.81,South,180,8.0,13.0,90,0.00,,---,0.18,VWS V14.00,2013-01-11 01:55:00,
2013-01-10 20:00:00,50.0,47.2,29.81,South,180,9.0,13.0,90,0.00,,---,0.18,VWS V14.00,2013-01-11 02:00:00,
2013-01-10 20:05:00,50.0,46.9,29.81,South,180,9.0,13.0,89,0.00,,---,0.18,VWS V14.00,2013-01-11 02:05:00,
2013-01-10 20:10:00,50.0,46.9,29.81,South,180,10.0,15.0,89,0.00,,---,0.18,VWS V14.00,2013-01-11 02:10:00,
2013-01-10 20:15:00,50.0,46.9,29.81,South,180,9.0,15.0,89,0.00,,---,0.18,VWS V14.00,2013-01-11 02:15:00,
2013-01-10 20:20:00,49.9,46.8,29.81,South,180,10.0,14.0,89,0.00,,---,0.18,VWS V14.00,2013-01-11 02:20:00,
2013-01-10 20:25:00,49.9,46.8,29.81,South,180,10.0,16.0,89,0.00,,---,0.18,VWS V14.00,2013-01-11 02:25:00,
2013-01-10 20:30:00,49.9,47.1,29.80,South,180,10.0,14.0,90,0.00,,---,0.18,VWS V14.00,2013-01-11 02:30:00,
2013-01-10 20:35:00,50.0,47.2,29.80,South,180,10.0,16.0,90,0.00,,---,0.18,VWS V14.00,2013-01-11 02:35:00,
2013-01-10 20:40:00,50.1,47.3,29.80,South,180,8.0,13.0,90,0.00,,---,0.18,VWS V14.00,2013-01-11 02:40:00,
2013-01-10 20:45:00,50.1,47.3,29.81,South,180,9.0,14.0,90,0.00,,---,0.18,VWS V14.00,2013-01-11 02:45:00,
2013-01-10 20:50:00,50.0,47.2,29.81,South,180,9.0,12.0,90,0.00,,---,0.18,VWS V14.00,2013-01-11 02:50:00,
2013-01-10 20:55:00,49.9,46.8,29.81,South,180,8.0,12.0,89,0.00,,---,0.18,VWS V14.00,2013-01-11 02:55:00,
2013-01-10 21:00:00,49.9,46.8,29.81,South,180,8.0,15.0,89,0.00,,---,0.18,VWS V14.00,2013-01-11 03:00:00,
2013-01-10 21:05:00,49.8,47.0,29.81,South,180,9.0,14.0,90,0.00,,---,0.18,VWS V14.00,2013-01-11 03:05:00,
2013-01-10 21:10:00,49.7,46.9,29.82,South,180,9.0,15.0,90,0.00,,---,0.18,VWS V14.00,2013-01-11 03:10:00,
2013-01-10 21:15:00,49.7,46.9,29.82,South,180,10.0,17.0,90,0.00,,---,0.18,VWS V14.00,2013-01-11 03:15:00,
2013-01-10 21:20:00,49.7,46.9,29.82,SSW,202,10.0,15.0,90,0.00,,---,0.18,VWS V14.00,2013-01-11 03:20:00,
2013-01-10 21:25:00,49.7,46.9,29.82,SSW,202,11.0,17.0,90,0.00,,---,0.18,VWS V14.00,2013-01-11 03:25:00,
2013-01-10 21:30:00,49.7,46.9,29.82,South,180,10.0,19.0,90,0.00,,---,0.18,VWS V14.00,2013-01-11 03:30:00,
2013-01-10 21:35:00,49.7,46.9,29.82,South,180,9.0,15.0,90,0.00,,---,0.18,VWS V14.00,2013-01-11 03:35:00,
2013-01-10 21:40:00,49.5,46.7,29.82,South,180,8.0,13.0,90,0.00,,---,0.18,VWS V14.00,2013-01-11 03:40:00,
2013-01-10 21:45:00,49.4,46.6,29.82,South,180,7.0,11.0,90,0.00,,---,0.18,VWS V14.00,2013-01-11 03:45:00,
2013-01-10 21:50:00,49.2,46.4,29.82,South,180,7.0,14.0,90,0.00,,---,0.18,VWS V14.00,2013-01-11 03:50:00,
2013-01-10 21:55:00,49.1,46.3,29.82,South,180,9.0,16.0,90,0.00,,---,0.18,VWS V14.00,2013-01-11 03:55:00,
2013-01-10 22:00:00,49.1,46.3,29.82,South,180,9.0,13.0,90,0.00,,---,0.18,VWS V14.00,2013-01-11 04:00:00,
2013-01-10 22:05:00,49.2,46.4,29.82,South,180,9.0,13.0,90,0.00,,---,0.18,VWS V14.00,2013-01-11 04:05:00,
2013-01-10 22:10:00,49.2,46.4,29.82,South,180,8.0,15.0,90,0.00,,---,0.18,VWS V14.00,2013-01-11 04:10:00,
2013-01-10 22:15:00,49.3,46.8,29.82,South,180,9.0,14.0,91,0.00,,---,0.18,VWS V14.00,2013-01-11 04:15:00,
2013-01-10 22:20:00,49.4,46.6,29.82,South,180,8.0,14.0,90,0.00,,---,0.18,VWS V14.00,2013-01-11 04:20:00,
2013-01-10 22:25:00,49.5,46.7,29.83,SSW,202,10.0,16.0,90,0.00,,---,0.18,VWS V14.00,2013-01-11 04:25:00,
2013-01-10 22:30:00,49.6,46.8,29.83,SSW,202,11.0,16.0,90,0.00,,---,0.18,VWS V14.00,2013-01-11 04:30:00,
2013-01-10 22:35:00,49.6,46.8,29.83,South,180,10.0,16.0,90,0.00,,---,0.18,VWS V14.00,2013-01-11 04:35:00,
2013-01-10 22:40:00,49.6,46.8,29.83,SSW,202,9.0,15.0,90,0.00,,---,0.18,VWS V14.00,2013-01-11 04:40:00,
2013-01-10 22:45:00,49.6,46.8,29.83,South,180,11.0,15.0,90,0.00,,---,0.18,VWS V14.00,2013-01-11 04:45:00,
2013-01-10 22:50:00,49.7,46.9,29.82,South,180,9.0,16.0,90,0.00,,---,0.18,VWS V14.00,2013-01-11 04:50:00,
2013-01-10 22:55:00,49.7,46.9,29.83,South,180,8.0,12.0,90,0.00,,---,0.18,VWS V14.00,2013-01-11 04:55:00,
2013-01-10 23:00:00,49.6,46.5,29.83,South,180,6.0,13.0,89,0.00,,---,0.18,VWS V14.00,2013-01-11 05:00:00,
2013-01-10 23:05:00,49.5,46.4,29.83,SSW,202,7.0,12.0,89,0.00,,---,0.18,VWS V14.00,2013-01-11 05:05:00,
2013-01-10 23:10:00,49.4,46.3,29.82,SSW,202,5.0,12.0,89,0.00,,---,0.18,VWS V14.00,2013-01-11 05:10:00,
2013-01-10 23:15:00,49.2,46.1,29.82,SSW,202,6.0,12.0,89,0.00,,---,0.18,VWS V14.00,2013-01-11 05:15:00,
2013-01-10 23:20:00,49.2,46.1,29.82,SSW,202,6.0,12.0,89,0.00,,---,0.18,VWS V14.00,2013-01-11 05:20:00,
2013-01-10 23:25:00,49.1,46.0,29.82,SSW,202,5.0,10.0,89,0.00,,---,0.18,VWS V14.00,2013-01-11 05:25:00,
2013-01-10 23:30:00,48.9,45.8,29.83,SW,225,5.0,11.0,89,0.00,,---,0.18,VWS V14.00,2013-01-11 05:30:00,
2013-01-10 23:35:00,48.8,45.7,29.83,SW,225,5.0,9.0,89,0.00,,---,0.18,VWS V14.00,2013-01-11 05:35:00,
2013-01-10 23:40:00,48.7,45.6,29.83,SSW,202,5.0,10.0,89,0.00,,---,0.18,VWS V14.00,2013-01-11 05:40:00,
2013-01-10 23:45:00,48.5,45.4,29.84,SSW,202,5.0,12.0,89,0.00,,---,0.18,VWS V14.00,2013-01-11 05:45:00,
2013-01-10 23:50:00,48.4,45.3,29.83,SSW,202,4.0,7.0,89,0.00,,---,0.18,VWS V14.00,2013-01-11 05:50:00,
2013-01-10 23:55:00,48.2,45.1,29.84,SSW,202,4.0,5.0,89,0.00,,---,0.18,VWS V14.00,2013-01-11 05:55:00,